Allendale, CA

9:55 AM PDT on September 19, 2014 (GMT -0700)
Browns Valley | Change Station
CLOSE
Current Station
Personal Weather Station
Location: Vacaville, CA
Elevation: 158 ft
Nearby Weather Stations

Elev 158 ft 38.39 °N, 121.97 °W | Updated 1 second ago

Clear
Clear
76.9 °F
Feels Like 79 °F
N
0.0
Wind Variable Wind from ESE
Gusts 2.0 mph

Today
High -- | Low -- °F
--% Chance of Precip.
Yesterday
High -- | Low -- °F
Precip. -- in
6:53 AM 7:09 PM
Waning Crescent, 18% visible
Pressure 29.88 in
Visibility 10.0 miles
Clouds Clear
Heat Index 79 °F
Dew Point 61 °F
Humidity 58%
Rainfall 0.00 in
Snow Depth 0 in , 1 in , 0 in
UV 2 out of 12
Pollen 5.90 out of 12
Ozone Good
PM2.5 Good
Flu Activity Not available.
METAR KVCB 191553Z AUTO 00000KT 10SM CLR 21/14 A2989 RMK AO2 SLP119 T02110144 TSNO

More Conditions Fewer Conditions

Pressure 29.88 in
Visibility 10.0 miles
Clouds Clear
Heat Index 79 °F
Dew Point 61 °F
Humidity 58%
Rainfall 0.00 in
Snow Depth 0 in , 1 in , 0 in
UV 2 out of 12
Pollen 5.90 out of 12
Ozone Good
PM2.5 Good
Flu Activity Not available.
METAR KVCB 191553Z AUTO 00000KT 10SM CLR 21/14 A2989 RMK AO2 SLP119 T02110144 TSNO

More Conditions Fewer Conditions

10-Day Weather Forecast

Almanac

Astronomy

Sep. 19, 2014 Rise Set
Actual Time 6:53 AM PDT 7:09 PM PDT
Civil Twilight 6:26 AM PDT 7:36 PM PDT
Nautical Twilight 5:55 AM PDT 8:06 PM PDT
Astronomical Twilight 5:24 AM PDT 8:38 PM PDT
Moon 2:45 AM PDT 4:39 PM PDT
Length of Visible Light 13h 09m
Length of Day
12h 16m
Tomorrow will be 2m 27s shorter.
Waning Crescent, 18% of the Moon is Illuminated
Today
Waning Crescent
Sep 24
New
Oct 1
First Quarter
Oct 8
Full
Oct 15
Last Quarter

Today's Extremes

State Highs State Lows

Community

WunderPhotos

Upload Photos

1,754,650 photos uploaded!

Nearby

Air Quality

  Air Quality AQ Index Pollutant
Yesterday Good
OZONE
Yesterday Good
PM2.5
Current Good
PM2.5
Current Good
OZONE
Friday Good
OZONE
Saturday Good
OZONE
Sunday Good
OZONE
Monday Good
OZONE
Tuesday Good
OZONE

Snow Depth

Station Depth Elevation
Crowder Flat 0 in 5100 ft
Leavitt Lake 1 in 9400 ft
Independence Creek 0 in 6500 ft
Blue Lakes 0 in 8000 ft
Independence Camp 0 in 7000 ft

Earthquake Activity

City Distance Mag. Time & Date
Livermore, California 51 miles 2.6 3:37 AM PDT
2014-09-19
The Geysers, California 45 miles 2.5 11:29 PM PDT
2014-09-17
Cobb, California 47 miles 2.7 1:23 PM PDT
2014-09-16
Minimum magnitude displayed is 2.5.

Coastal Water Temperatures

Place Temperature
San Francisco, CA 66.0 °F
Richmond, CA 68.0 °F
Port Chicago, CA 70.0 °F

Nearby Weather Stations